sensor_id;sensor_type;location;lat;lon;timestamp;temperature;humidity
54429;DHT22;40337;52.978;6.310;2023-06-24T00:01:28;17.40;99.90
54429;DHT22;40337;52.978;6.310;2023-06-24T00:03:54;17.30;99.90
54429;DHT22;40337;52.978;6.310;2023-06-24T00:06:20;17.30;99.90
54429;DHT22;40337;52.978;6.310;2023-06-24T00:08:48;17.30;99.90
54429;DHT22;40337;52.978;6.310;2023-06-24T00:11:14;17.30;99.90
54429;DHT22;40337;52.978;6.310;2023-06-24T00:13:40;17.30;99.90
54429;DHT22;40337;52.978;6.310;2023-06-24T00:16:06;17.30;99.90
54429;DHT22;40337;52.978;6.310;2023-06-24T00:18:33;17.40;99.90
54429;DHT22;40337;52.978;6.310;2023-06-24T00:20:58;17.30;99.90
54429;DHT22;40337;52.978;6.310;2023-06-24T00:23:24;17.30;99.90
54429;DHT22;40337;52.978;6.310;2023-06-24T00:25:53;17.30;99.90
54429;DHT22;40337;52.978;6.310;2023-06-24T00:28:20;17.20;99.90
54429;DHT22;40337;52.978;6.310;2023-06-24T00:30:47;17.20;99.90
54429;DHT22;40337;52.978;6.310;2023-06-24T00:33:12;17.30;99.90
54429;DHT22;40337;52.978;6.310;2023-06-24T00:35:39;17.20;99.90
54429;DHT22;40337;52.978;6.310;2023-06-24T00:38:05;17.20;99.90
54429;DHT22;40337;52.978;6.310;2023-06-24T00:40:31;17.20;99.90
54429;DHT22;40337;52.978;6.310;2023-06-24T00:42:57;17.20;99.90
54429;DHT22;40337;52.978;6.310;2023-06-24T00:45:23;17.20;99.90
54429;DHT22;40337;52.978;6.310;2023-06-24T00:47:49;17.10;99.90
54429;DHT22;40337;52.978;6.310;2023-06-24T00:50:15;17.10;99.90
54429;DHT22;40337;52.978;6.310;2023-06-24T00:52:41;17.10;99.90
54429;DHT22;40337;52.978;6.310;2023-06-24T00:55:11;17.10;99.90
54429;DHT22;40337;52.978;6.310;2023-06-24T00:57:42;17.10;99.90
54429;DHT22;40337;52.978;6.310;2023-06-24T01:00:08;17.00;99.90
54429;DHT22;40337;52.978;6.310;2023-06-24T01:02:37;17.00;99.90
54429;DHT22;40337;52.978;6.310;2023-06-24T01:05:03;16.90;99.90
54429;DHT22;40337;52.978;6.310;2023-06-24T01:07:34;16.80;99.90
54429;DHT22;40337;52.978;6.310;2023-06-24T01:10:02;16.80;99.90
54429;DHT22;40337;52.978;6.310;2023-06-24T01:12:28;16.70;99.90
54429;DHT22;40337;52.978;6.310;2023-06-24T01:14:54;16.70;99.90
54429;DHT22;40337;52.978;6.310;2023-06-24T01:17:24;16.70;99.90
54429;DHT22;40337;52.978;6.310;2023-06-24T01:28:23;16.30;99.90
54429;DHT22;40337;52.978;6.310;2023-06-24T01:30:54;16.20;99.90
54429;DHT22;40337;52.978;6.310;2023-06-24T01:36:11;16.20;99.90
54429;DHT22;40337;52.978;6.310;2023-06-24T01:38:47;16.10;99.90
54429;DHT22;40337;52.978;6.310;2023-06-24T01:41:16;16.00;99.90
54429;DHT22;40337;52.978;6.310;2023-06-24T01:43:44;16.00;99.90
54429;DHT22;40337;52.978;6.310;2023-06-24T01:46:12;16.00;99.90
54429;DHT22;40337;52.978;6.310;2023-06-24T01:48:42;16.00;99.90
54429;DHT22;40337;52.978;6.310;2023-06-24T01:51:11;15.90;99.90
54429;DHT22;40337;52.978;6.310;2023-06-24T01:53:39;15.90;99.90
54429;DHT22;40337;52.978;6.310;2023-06-24T01:56:10;16.00;99.90
54429;DHT22;40337;52.978;6.310;2023-06-24T01:58:36;15.90;99.90
54429;DHT22;40337;52.978;6.310;2023-06-24T02:01:03;15.90;99.90
54429;DHT22;40337;52.978;6.310;2023-06-24T02:03:31;15.90;99.90
54429;DHT22;40337;52.978;6.310;2023-06-24T02:05:59;15.80;99.90
54429;DHT22;40337;52.978;6.310;2023-06-24T02:08:25;15.70;99.90
54429;DHT22;40337;52.978;6.310;2023-06-24T02:10:51;15.70;99.90
54429;DHT22;40337;52.978;6.310;2023-06-24T02:13:17;15.70;99.90
54429;DHT22;40337;52.978;6.310;2023-06-24T02:15:45;15.70;99.90
54429;DHT22;40337;52.978;6.310;2023-06-24T02:18:13;15.70;99.90
54429;DHT22;40337;52.978;6.310;2023-06-24T02:20:41;15.80;99.90
54429;DHT22;40337;52.978;6.310;2023-06-24T02:23:09;15.80;99.90
54429;DHT22;40337;52.978;6.310;2023-06-24T02:25:36;15.70;99.90
54429;DHT22;40337;52.978;6.310;2023-06-24T02:28:05;15.80;99.90
54429;DHT22;40337;52.978;6.310;2023-06-24T02:30:31;15.70;99.90
54429;DHT22;40337;52.978;6.310;2023-06-24T02:32:57;15.70;99.90
54429;DHT22;40337;52.978;6.310;2023-06-24T02:35:23;15.70;99.90
54429;DHT22;40337;52.978;6.310;2023-06-24T02:37:49;15.70;99.90
54429;DHT22;40337;52.978;6.310;2023-06-24T02:40:14;15.60;99.90
54429;DHT22;40337;52.978;6.310;2023-06-24T02:42:40;15.60;99.90
54429;DHT22;40337;52.978;6.310;2023-06-24T02:45:06;15.60;99.90
54429;DHT22;40337;52.978;6.310;2023-06-24T02:47:35;15.60;99.90
54429;DHT22;40337;52.978;6.310;2023-06-24T02:50:03;15.70;99.90
54429;DHT22;40337;52.978;6.310;2023-06-24T02:52:29;15.70;99.90
54429;DHT22;40337;52.978;6.310;2023-06-24T02:54:57;15.70;99.90
54429;DHT22;40337;52.978;6.310;2023-06-24T02:57:22;15.60;99.90
54429;DHT22;40337;52.978;6.310;2023-06-24T02:59:49;15.70;99.90
54429;DHT22;40337;52.978;6.310;2023-06-24T03:02:16;15.70;99.90
54429;DHT22;40337;52.978;6.310;2023-06-24T03:04:42;15.60;99.90
54429;DHT22;40337;52.978;6.310;2023-06-24T03:07:08;15.60;99.90
54429;DHT22;40337;52.978;6.310;2023-06-24T03:09:36;15.60;99.90
54429;DHT22;40337;52.978;6.310;2023-06-24T03:12:01;15.60;99.90
54429;DHT22;40337;52.978;6.310;2023-06-24T03:14:27;15.60;99.90
54429;DHT22;40337;52.978;6.310;2023-06-24T03:16:52;15.60;99.90
54429;DHT22;40337;52.978;6.310;2023-06-24T03:19:18;15.60;99.90
54429;DHT22;40337;52.978;6.310;2023-06-24T03:21:43;15.70;99.90
54429;DHT22;40337;52.978;6.310;2023-06-24T03:24:09;15.60;99.90
54429;DHT22;40337;52.978;6.310;2023-06-24T03:26:36;15.60;99.90
54429;DHT22;40337;52.978;6.310;2023-06-24T03:29:02;15.60;99.90
54429;DHT22;40337;52.978;6.310;2023-06-24T03:31:28;15.50;99.90
54429;DHT22;40337;52.978;6.310;2023-06-24T03:33:54;15.40;99.90
54429;DHT22;40337;52.978;6.310;2023-06-24T03:36:20;15.40;99.90
54429;DHT22;40337;52.978;6.310;2023-06-24T03:38:45;15.40;99.90
54429;DHT22;40337;52.978;6.310;2023-06-24T03:41:11;15.40;99.90
54429;DHT22;40337;52.978;6.310;2023-06-24T03:43:37;15.40;99.90
54429;DHT22;40337;52.978;6.310;2023-06-24T03:46:03;15.30;99.90
54429;DHT22;40337;52.978;6.310;2023-06-24T03:48:28;15.40;99.90
54429;DHT22;40337;52.978;6.310;2023-06-24T03:50:54;15.40;99.90
54429;DHT22;40337;52.978;6.310;2023-06-24T03:53:19;15.40;99.90
54429;DHT22;40337;52.978;6.310;2023-06-24T03:55:45;15.40;99.90
54429;DHT22;40337;52.978;6.310;2023-06-24T03:58:10;15.50;99.90
54429;DHT22;40337;52.978;6.310;2023-06-24T04:00:36;15.50;99.90
54429;DHT22;40337;52.978;6.310;2023-06-24T04:03:06;15.60;99.90
54429;DHT22;40337;52.978;6.310;2023-06-24T04:05:33;15.60;99.90
54429;DHT22;40337;52.978;6.310;2023-06-24T04:07:58;15.60;99.90
54429;DHT22;40337;52.978;6.310;2023-06-24T04:10:24;15.70;99.90
54429;DHT22;40337;52.978;6.310;2023-06-24T04:12:50;15.70;99.90
54429;DHT22;40337;52.978;6.310;2023-06-24T04:15:15;15.80;99.90
54429;DHT22;40337;52.978;6.310;2023-06-24T04:17:41;15.80;99.90
54429;DHT22;40337;52.978;6.310;2023-06-24T04:20:07;15.80;99.90
54429;DHT22;40337;52.978;6.310;2023-06-24T04:22:37;15.80;99.90
54429;DHT22;40337;52.978;6.310;2023-06-24T04:25:04;15.70;99.90
54429;DHT22;40337;52.978;6.310;2023-06-24T04:27:31;15.70;99.90
54429;DHT22;40337;52.978;6.310;2023-06-24T04:29:57;15.70;99.90
54429;DHT22;40337;52.978;6.310;2023-06-24T04:32:22;15.60;99.90
54429;DHT22;40337;52.978;6.310;2023-06-24T04:34:48;15.70;99.90
54429;DHT22;40337;52.978;6.310;2023-06-24T04:37:14;15.70;99.90
54429;DHT22;40337;52.978;6.310;2023-06-24T04:39:39;15.70;99.90
54429;DHT22;40337;52.978;6.310;2023-06-24T04:42:05;15.80;99.90
54429;DHT22;40337;52.978;6.310;2023-06-24T04:44:31;15.80;99.90
54429;DHT22;40337;52.978;6.310;2023-06-24T04:46:56;15.90;99.90
54429;DHT22;40337;52.978;6.310;2023-06-24T04:49:22;15.90;99.90
54429;DHT22;40337;52.978;6.310;2023-06-24T04:51:47;15.90;99.90
54429;DHT22;40337;52.978;6.310;2023-06-24T04:54:13;16.00;99.90
54429;DHT22;40337;52.978;6.310;2023-06-24T04:56:39;16.10;99.90
54429;DHT22;40337;52.978;6.310;2023-06-24T04:59:05;16.10;99.90
54429;DHT22;40337;52.978;6.310;2023-06-24T05:01:31;16.20;99.90
54429;DHT22;40337;52.978;6.310;2023-06-24T05:03:56;16.20;99.90
54429;DHT22;40337;52.978;6.310;2023-06-24T05:06:22;16.20;99.90
54429;DHT22;40337;52.978;6.310;2023-06-24T05:08:47;16.30;99.90
54429;DHT22;40337;52.978;6.310;2023-06-24T05:11:14;16.40;99.90
54429;DHT22;40337;52.978;6.310;2023-06-24T05:13:40;16.50;99.90
54429;DHT22;40337;52.978;6.310;2023-06-24T05:16:05;16.60;99.90
54429;DHT22;40337;52.978;6.310;2023-06-24T05:18:31;16.70;99.90
54429;DHT22;40337;52.978;6.310;2023-06-24T05:20:56;16.80;99.90
54429;DHT22;40337;52.978;6.310;2023-06-24T05:23:22;16.80;99.90
54429;DHT22;40337;52.978;6.310;2023-06-24T05:25:48;16.90;99.90
54429;DHT22;40337;52.978;6.310;2023-06-24T05:28:13;16.90;99.90
54429;DHT22;40337;52.978;6.310;2023-06-24T05:30:39;16.90;99.90
54429;DHT22;40337;52.978;6.310;2023-06-24T05:33:04;17.00;99.90
54429;DHT22;40337;52.978;6.310;2023-06-24T05:35:30;17.00;99.90
54429;DHT22;40337;52.978;6.310;2023-06-24T05:37:55;17.00;99.90
54429;DHT22;40337;52.978;6.310;2023-06-24T05:40:21;17.10;99.90
54429;DHT22;40337;52.978;6.310;2023-06-24T05:42:46;17.10;99.90
54429;DHT22;40337;52.978;6.310;2023-06-24T05:45:12;17.20;99.90
54429;DHT22;40337;52.978;6.310;2023-06-24T05:47:38;17.20;99.90
54429;DHT22;40337;52.978;6.310;2023-06-24T05:50:04;17.30;99.90
54429;DHT22;40337;52.978;6.310;2023-06-24T05:52:30;17.40;99.90
54429;DHT22;40337;52.978;6.310;2023-06-24T05:54:55;17.50;99.90
54429;DHT22;40337;52.978;6.310;2023-06-24T05:57:21;17.70;99.90
54429;DHT22;40337;52.978;6.310;2023-06-24T05:59:46;17.90;99.90
54429;DHT22;40337;52.978;6.310;2023-06-24T06:02:12;18.10;99.90
54429;DHT22;40337;52.978;6.310;2023-06-24T06:04:38;18.30;99.90
54429;DHT22;40337;52.978;6.310;2023-06-24T06:07:04;18.50;99.90
54429;DHT22;40337;52.978;6.310;2023-06-24T06:09:30;18.90;99.90
54429;DHT22;40337;52.978;6.310;2023-06-24T06:11:55;19.20;99.90
54429;DHT22;40337;52.978;6.310;2023-06-24T06:14:21;19.50;99.90
54429;DHT22;40337;52.978;6.310;2023-06-24T06:16:46;19.80;99.90
54429;DHT22;40337;52.978;6.310;2023-06-24T06:19:12;20.10;99.90
54429;DHT22;40337;52.978;6.310;2023-06-24T06:21:38;20.40;99.90
54429;DHT22;40337;52.978;6.310;2023-06-24T06:24:04;20.60;99.90
54429;DHT22;40337;52.978;6.310;2023-06-24T06:26:30;20.80;99.90
54429;DHT22;40337;52.978;6.310;2023-06-24T06:28:55;21.10;99.90
54429;DHT22;40337;52.978;6.310;2023-06-24T06:31:21;21.30;99.90
54429;DHT22;40337;52.978;6.310;2023-06-24T06:33:48;21.50;99.90
54429;DHT22;40337;52.978;6.310;2023-06-24T06:36:13;21.80;99.90
54429;DHT22;40337;52.978;6.310;2023-06-24T06:38:40;22.20;99.90
54429;DHT22;40337;52.978;6.310;2023-06-24T06:41:05;22.50;99.90
54429;DHT22;40337;52.978;6.310;2023-06-24T06:43:31;22.70;99.90
54429;DHT22;40337;52.978;6.310;2023-06-24T06:45:57;22.90;99.90
54429;DHT22;40337;52.978;6.310;2023-06-24T06:48:22;23.20;99.90
54429;DHT22;40337;52.978;6.310;2023-06-24T06:50:48;23.50;99.90
54429;DHT22;40337;52.978;6.310;2023-06-24T06:53:14;23.70;99.90
54429;DHT22;40337;52.978;6.310;2023-06-24T06:55:40;23.40;99.90
54429;DHT22;40337;52.978;6.310;2023-06-24T06:58:08;23.20;99.90
54429;DHT22;40337;52.978;6.310;2023-06-24T07:00:33;23.10;99.90
54429;DHT22;40337;52.978;6.310;2023-06-24T07:02:59;22.90;99.90
54429;DHT22;40337;52.978;6.310;2023-06-24T07:05:24;22.80;99.90
54429;DHT22;40337;52.978;6.310;2023-06-24T07:07:50;22.70;99.90
54429;DHT22;40337;52.978;6.310;2023-06-24T07:10:15;22.60;99.90
54429;DHT22;40337;52.978;6.310;2023-06-24T07:12:42;22.60;99.90
54429;DHT22;40337;52.978;6.310;2023-06-24T07:15:08;22.60;99.90
54429;DHT22;40337;52.978;6.310;2023-06-24T07:17:34;22.70;99.90
54429;DHT22;40337;52.978;6.310;2023-06-24T07:19:59;22.70;99.90
54429;DHT22;40337;52.978;6.310;2023-06-24T07:22:25;22.90;99.90
54429;DHT22;40337;52.978;6.310;2023-06-24T07:24:50;23.00;99.90
54429;DHT22;40337;52.978;6.310;2023-06-24T07:27:16;23.10;99.90
54429;DHT22;40337;52.978;6.310;2023-06-24T07:29:41;23.30;99.20
54429;DHT22;40337;52.978;6.310;2023-06-24T07:32:07;23.20;98.70
54429;DHT22;40337;52.978;6.310;2023-06-24T07:34:33;23.30;99.20
54429;DHT22;40337;52.978;6.310;2023-06-24T07:36:59;23.30;99.20
54429;DHT22;40337;52.978;6.310;2023-06-24T07:39:24;23.30;99.50
54429;DHT22;40337;52.978;6.310;2023-06-24T07:41:50;23.30;99.90
54429;DHT22;40337;52.978;6.310;2023-06-24T07:44:15;23.40;99.20
54429;DHT22;40337;52.978;6.310;2023-06-24T07:46:41;23.50;99.30
54429;DHT22;40337;52.978;6.310;2023-06-24T07:49:06;23.60;99.60
54429;DHT22;40337;52.978;6.310;2023-06-24T07:51:32;23.70;98.90
54429;DHT22;40337;52.978;6.310;2023-06-24T07:54:00;23.90;99.10
54429;DHT22;40337;52.978;6.310;2023-06-24T07:56:26;24.10;99.50
54429;DHT22;40337;52.978;6.310;2023-06-24T07:58:51;24.40;99.00
54429;DHT22;40337;52.978;6.310;2023-06-24T08:01:17;24.70;98.70
54429;DHT22;40337;52.978;6.310;2023-06-24T08:03:42;24.80;98.10
54429;DHT22;40337;52.978;6.310;2023-06-24T08:06:08;24.70;97.40
54429;DHT22;40337;52.978;6.310;2023-06-24T08:08:33;24.60;97.60
54429;DHT22;40337;52.978;6.310;2023-06-24T08:10:59;24.60;97.80
54429;DHT22;40337;52.978;6.310;2023-06-24T08:13:25;24.70;98.20
54429;DHT22;40337;52.978;6.310;2023-06-24T08:15:50;24.90;98.00
54429;DHT22;40337;52.978;6.310;2023-06-24T08:18:16;24.90;97.70
54429;DHT22;40337;52.978;6.310;2023-06-24T08:20:41;25.00;97.80
54429;DHT22;40337;52.978;6.310;2023-06-24T08:23:07;25.00;97.00
54429;DHT22;40337;52.978;6.310;2023-06-24T08:25:34;25.00;96.90
54429;DHT22;40337;52.978;6.310;2023-06-24T08:28:00;25.00;96.90
54429;DHT22;40337;52.978;6.310;2023-06-24T08:30:25;25.00;97.30
54429;DHT22;40337;52.978;6.310;2023-06-24T08:32:51;25.00;97.30
54429;DHT22;40337;52.978;6.310;2023-06-24T08:35:17;25.00;96.80
54429;DHT22;40337;52.978;6.310;2023-06-24T08:37:42;25.00;96.50
54429;DHT22;40337;52.978;6.310;2023-06-24T08:40:08;25.10;96.90
54429;DHT22;40337;52.978;6.310;2023-06-24T08:42:34;24.90;96.10
54429;DHT22;40337;52.978;6.310;2023-06-24T08:44:59;25.00;96.80
54429;DHT22;40337;52.978;6.310;2023-06-24T08:47:25;24.90;96.10
54429;DHT22;40337;52.978;6.310;2023-06-24T08:49:55;25.10;96.30
54429;DHT22;40337;52.978;6.310;2023-06-24T08:52:25;25.50;95.60
54429;DHT22;40337;52.978;6.310;2023-06-24T08:54:52;26.00;96.60
54429;DHT22;40337;52.978;6.310;2023-06-24T08:57:20;26.40;95.60
54429;DHT22;40337;52.978;6.310;2023-06-24T08:59:45;26.50;95.40
54429;DHT22;40337;52.978;6.310;2023-06-24T09:02:11;26.50;94.30
54429;DHT22;40337;52.978;6.310;2023-06-24T09:04:39;26.60;94.40
54429;DHT22;40337;52.978;6.310;2023-06-24T09:07:05;27.00;94.50
54429;DHT22;40337;52.978;6.310;2023-06-24T09:09:31;27.30;94.80
54429;DHT22;40337;52.978;6.310;2023-06-24T09:12:01;27.40;94.40
54429;DHT22;40337;52.978;6.310;2023-06-24T09:14:29;27.60;93.80
54429;DHT22;40337;52.978;6.310;2023-06-24T09:17:00;27.90;93.40
54429;DHT22;40337;52.978;6.310;2023-06-24T09:19:27;27.80;92.90
54429;DHT22;40337;52.978;6.310;2023-06-24T09:22:03;28.10;93.30
54429;DHT22;40337;52.978;6.310;2023-06-24T09:24:33;28.30;93.00
54429;DHT22;40337;52.978;6.310;2023-06-24T09:26:58;28.30;93.40
54429;DHT22;40337;52.978;6.310;2023-06-24T09:29:29;28.50;92.90
54429;DHT22;40337;52.978;6.310;2023-06-24T09:31:54;28.60;92.10
54429;DHT22;40337;52.978;6.310;2023-06-24T09:34:25;28.80;92.10
54429;DHT22;40337;52.978;6.310;2023-06-24T09:36:58;28.90;91.50
54429;DHT22;40337;52.978;6.310;2023-06-24T09:39:25;29.00;91.70
54429;DHT22;40337;52.978;6.310;2023-06-24T09:42:00;29.30;91.20
54429;DHT22;40337;52.978;6.310;2023-06-24T09:44:27;29.60;91.10
54429;DHT22;40337;52.978;6.310;2023-06-24T09:46:54;29.60;90.70
54429;DHT22;40337;52.978;6.310;2023-06-24T09:49:21;29.80;90.80
54429;DHT22;40337;52.978;6.310;2023-06-24T09:51:48;29.60;90.70
54429;DHT22;40337;52.978;6.310;2023-06-24T09:54:15;29.90;90.10
54429;DHT22;40337;52.978;6.310;2023-06-24T09:56:51;29.90;90.30
54429;DHT22;40337;52.978;6.310;2023-06-24T09:59:19;30.20;89.60
54429;DHT22;40337;52.978;6.310;2023-06-24T10:01:47;30.40;90.40
54429;DHT22;40337;52.978;6.310;2023-06-24T10:04:17;30.60;89.40
54429;DHT22;40337;52.978;6.310;2023-06-24T10:06:43;30.60;88.30
54429;DHT22;40337;52.978;6.310;2023-06-24T10:09:09;30.70;89.40
54429;DHT22;40337;52.978;6.310;2023-06-24T10:11:35;30.70;87.40
54429;DHT22;40337;52.978;6.310;2023-06-24T10:14:01;30.60;86.50
54429;DHT22;40337;52.978;6.310;2023-06-24T10:16:27;30.40;86.40
54429;DHT22;40337;52.978;6.310;2023-06-24T10:19:00;30.10;87.30
54429;DHT22;40337;52.978;6.310;2023-06-24T10:21:53;30.10;88.00
54429;DHT22;40337;52.978;6.310;2023-06-24T10:24:29;30.40;86.50
54429;DHT22;40337;52.978;6.310;2023-06-24T10:26:55;30.20;85.70
54429;DHT22;40337;52.978;6.310;2023-06-24T10:29:33;30.20;87.50
54429;DHT22;40337;52.978;6.310;2023-06-24T10:32:07;30.50;84.20
54429;DHT22;40337;52.978;6.310;2023-06-24T10:34:38;29.90;84.90
54429;DHT22;40337;52.978;6.310;2023-06-24T10:37:12;29.90;86.40
54429;DHT22;40337;52.978;6.310;2023-06-24T10:39:47;29.40;86.80
54429;DHT22;40337;52.978;6.310;2023-06-24T10:44:58;29.30;86.90
54429;DHT22;40337;52.978;6.310;2023-06-24T10:47:25;28.80;86.90
54429;DHT22;40337;52.978;6.310;2023-06-24T10:49:51;28.80;88.90
54429;DHT22;40337;52.978;6.310;2023-06-24T10:52:21;29.20;88.30
54429;DHT22;40337;52.978;6.310;2023-06-24T10:54:47;29.50;87.50
54429;DHT22;40337;52.978;6.310;2023-06-24T10:57:13;29.70;85.40
54429;DHT22;40337;52.978;6.310;2023-06-24T10:59:43;30.20;85.50
54429;DHT22;40337;52.978;6.310;2023-06-24T11:02:14;30.10;85.20
54429;DHT22;40337;52.978;6.310;2023-06-24T11:04:47;29.80;85.30
54429;DHT22;40337;52.978;6.310;2023-06-24T11:07:14;29.70;88.70
54429;DHT22;40337;52.978;6.310;2023-06-24T11:09:41;29.70;86.10
54429;DHT22;40337;52.978;6.310;2023-06-24T11:12:10;29.50;84.10
54429;DHT22;40337;52.978;6.310;2023-06-24T11:14:36;29.40;85.00
54429;DHT22;40337;52.978;6.310;2023-06-24T11:17:04;28.90;86.50
54429;DHT22;40337;52.978;6.310;2023-06-24T11:19:30;28.40;87.30
54429;DHT22;40337;52.978;6.310;2023-06-24T11:22:03;28.00;87.20
54429;DHT22;40337;52.978;6.310;2023-06-24T11:24:29;27.90;86.70
54429;DHT22;40337;52.978;6.310;2023-06-24T11:26:54;28.10;86.60
54429;DHT22;40337;52.978;6.310;2023-06-24T11:29:21;28.70;85.10
54429;DHT22;40337;52.978;6.310;2023-06-24T11:31:47;29.30;85.70
54429;DHT22;40337;52.978;6.310;2023-06-24T11:34:12;29.30;87.30
54429;DHT22;40337;52.978;6.310;2023-06-24T11:36:38;29.50;86.80
54429;DHT22;40337;52.978;6.310;2023-06-24T11:39:03;29.70;87.70
54429;DHT22;40337;52.978;6.310;2023-06-24T11:41:29;29.60;82.20
54429;DHT22;40337;52.978;6.310;2023-06-24T11:43:57;29.80;85.20
54429;DHT22;40337;52.978;6.310;2023-06-24T11:46:30;30.00;83.80
54429;DHT22;40337;52.978;6.310;2023-06-24T11:49:06;30.50;82.00
54429;DHT22;40337;52.978;6.310;2023-06-24T11:51:32;30.80;81.10
54429;DHT22;40337;52.978;6.310;2023-06-24T11:54:05;31.20;80.40
54429;DHT22;40337;52.978;6.310;2023-06-24T11:56:42;31.50;82.20
54429;DHT22;40337;52.978;6.310;2023-06-24T11:59:22;31.60;81.20
54429;DHT22;40337;52.978;6.310;2023-06-24T12:01:56;31.90;81.50
54429;DHT22;40337;52.978;6.310;2023-06-24T12:04:30;31.20;78.90
54429;DHT22;40337;52.978;6.310;2023-06-24T12:06:56;30.90;80.60
54429;DHT22;40337;52.978;6.310;2023-06-24T12:09:22;31.00;82.00
54429;DHT22;40337;52.978;6.310;2023-06-24T12:11:47;31.20;82.30
54429;DHT22;40337;52.978;6.310;2023-06-24T12:14:13;31.30;81.80
54429;DHT22;40337;52.978;6.310;2023-06-24T12:16:39;31.00;81.90
54429;DHT22;40337;52.978;6.310;2023-06-24T12:19:06;30.90;80.20
54429;DHT22;40337;52.978;6.310;2023-06-24T12:21:32;30.60;79.70
54429;DHT22;40337;52.978;6.310;2023-06-24T12:23:57;30.30;80.40
54429;DHT22;40337;52.978;6.310;2023-06-24T12:26:23;30.60;80.30
54429;DHT22;40337;52.978;6.310;2023-06-24T12:28:48;31.00;80.10
54429;DHT22;40337;52.978;6.310;2023-06-24T12:31:14;31.30;79.80
54429;DHT22;40337;52.978;6.310;2023-06-24T12:33:40;31.30;78.40
54429;DHT22;40337;52.978;6.310;2023-06-24T12:36:05;31.40;78.20
54429;DHT22;40337;52.978;6.310;2023-06-24T12:38:31;31.50;76.70
54429;DHT22;40337;52.978;6.310;2023-06-24T12:40:59;31.70;76.60
54429;DHT22;40337;52.978;6.310;2023-06-24T12:43:25;31.80;76.70
54429;DHT22;40337;52.978;6.310;2023-06-24T12:45:50;31.80;76.50
54429;DHT22;40337;52.978;6.310;2023-06-24T12:48:16;32.00;76.40
54429;DHT22;40337;52.978;6.310;2023-06-24T12:50:42;31.80;75.60
54429;DHT22;40337;52.978;6.310;2023-06-24T12:53:08;32.00;75.40
54429;DHT22;40337;52.978;6.310;2023-06-24T12:55:36;32.10;74.60
54429;DHT22;40337;52.978;6.310;2023-06-24T12:58:01;32.30;74.90
54429;DHT22;40337;52.978;6.310;2023-06-24T13:00:27;32.30;75.80
54429;DHT22;40337;52.978;6.310;2023-06-24T13:02:53;32.40;74.20
54429;DHT22;40337;52.978;6.310;2023-06-24T13:05:18;32.50;73.90
54429;DHT22;40337;52.978;6.310;2023-06-24T13:07:44;32.50;74.80
54429;DHT22;40337;52.978;6.310;2023-06-24T13:10:10;32.30;74.60
54429;DHT22;40337;52.978;6.310;2023-06-24T13:12:36;31.90;75.30
54429;DHT22;40337;52.978;6.310;2023-06-24T13:15:03;31.70;77.20
54429;DHT22;40337;52.978;6.310;2023-06-24T13:17:30;31.70;78.50
54429;DHT22;40337;52.978;6.310;2023-06-24T13:19:55;31.90;77.30
54429;DHT22;40337;52.978;6.310;2023-06-24T13:22:21;32.10;77.20
54429;DHT22;40337;52.978;6.310;2023-06-24T13:24:47;32.10;78.20
54429;DHT22;40337;52.978;6.310;2023-06-24T13:27:13;32.00;77.00
54429;DHT22;40337;52.978;6.310;2023-06-24T13:29:38;32.20;77.40
54429;DHT22;40337;52.978;6.310;2023-06-24T13:32:04;32.20;76.80
54429;DHT22;40337;52.978;6.310;2023-06-24T13:34:30;32.30;76.00
54429;DHT22;40337;52.978;6.310;2023-06-24T13:36:56;32.20;77.50
54429;DHT22;40337;52.978;6.310;2023-06-24T13:39:21;31.60;76.20
54429;DHT22;40337;52.978;6.310;2023-06-24T13:41:50;31.50;76.60
54429;DHT22;40337;52.978;6.310;2023-06-24T13:44:16;31.10;77.40
54429;DHT22;40337;52.978;6.310;2023-06-24T13:46:42;30.70;77.80
54429;DHT22;40337;52.978;6.310;2023-06-24T13:49:07;30.50;78.50
54429;DHT22;40337;52.978;6.310;2023-06-24T13:51:33;30.40;78.70
54429;DHT22;40337;52.978;6.310;2023-06-24T13:53:59;30.20;79.20
54429;DHT22;40337;52.978;6.310;2023-06-24T13:56:25;30.00;79.30
54429;DHT22;40337;52.978;6.310;2023-06-24T13:58:52;30.00;81.90
54429;DHT22;40337;52.978;6.310;2023-06-24T14:01:18;30.10;81.30
54429;DHT22;40337;52.978;6.310;2023-06-24T14:03:44;30.10;81.80
54429;DHT22;40337;52.978;6.310;2023-06-24T14:06:10;30.00;81.90
54429;DHT22;40337;52.978;6.310;2023-06-24T14:08:36;29.80;82.30
54429;DHT22;40337;52.978;6.310;2023-06-24T14:11:02;29.70;81.90
54429;DHT22;40337;52.978;6.310;2023-06-24T14:13:28;29.60;82.20
54429;DHT22;40337;52.978;6.310;2023-06-24T14:15:55;29.50;82.70
54429;DHT22;40337;52.978;6.310;2023-06-24T14:18:20;29.30;83.30
54429;DHT22;40337;52.978;6.310;2023-06-24T14:20:46;29.20;84.10
54429;DHT22;40337;52.978;6.310;2023-06-24T14:23:12;29.10;84.70
54429;DHT22;40337;52.978;6.310;2023-06-24T14:25:38;29.10;84.30
54429;DHT22;40337;52.978;6.310;2023-06-24T14:28:04;29.00;84.20
54429;DHT22;40337;52.978;6.310;2023-06-24T14:30:30;29.00;83.80
54429;DHT22;40337;52.978;6.310;2023-06-24T14:32:56;29.00;85.10
54429;DHT22;40337;52.978;6.310;2023-06-24T14:35:21;29.00;84.20
54429;DHT22;40337;52.978;6.310;2023-06-24T14:37:47;28.80;84.70
54429;DHT22;40337;52.978;6.310;2023-06-24T14:40:12;28.60;85.00
54429;DHT22;40337;52.978;6.310;2023-06-24T14:42:38;28.50;85.40
54429;DHT22;40337;52.978;6.310;2023-06-24T14:45:04;28.50;86.80
54429;DHT22;40337;52.978;6.310;2023-06-24T14:47:29;28.50;86.40
54429;DHT22;40337;52.978;6.310;2023-06-24T14:49:56;28.50;85.70
54429;DHT22;40337;52.978;6.310;2023-06-24T14:52:22;28.40;86.10
54429;DHT22;40337;52.978;6.310;2023-06-24T14:54:47;28.40;86.30
54429;DHT22;40337;52.978;6.310;2023-06-24T14:57:13;28.40;86.50
54429;DHT22;40337;52.978;6.310;2023-06-24T14:59:41;28.50;86.50
54429;DHT22;40337;52.978;6.310;2023-06-24T15:02:06;28.50;87.00
54429;DHT22;40337;52.978;6.310;2023-06-24T15:04:32;28.70;86.20
54429;DHT22;40337;52.978;6.310;2023-06-24T15:06:57;28.90;84.90
54429;DHT22;40337;52.978;6.310;2023-06-24T15:09:23;29.20;85.10
54429;DHT22;40337;52.978;6.310;2023-06-24T15:11:49;29.50;85.00
54429;DHT22;40337;52.978;6.310;2023-06-24T15:14:15;29.80;86.30
54429;DHT22;40337;52.978;6.310;2023-06-24T15:16:41;30.00;86.30
54429;DHT22;40337;52.978;6.310;2023-06-24T15:19:06;29.90;84.60
54429;DHT22;40337;52.978;6.310;2023-06-24T15:21:32;30.00;84.60
54429;DHT22;40337;52.978;6.310;2023-06-24T15:23:57;30.10;86.70
54429;DHT22;40337;52.978;6.310;2023-06-24T15:26:23;30.00;86.10
54429;DHT22;40337;52.978;6.310;2023-06-24T15:28:48;29.70;85.10
54429;DHT22;40337;52.978;6.310;2023-06-24T15:31:14;29.30;85.00
54429;DHT22;40337;52.978;6.310;2023-06-24T15:33:40;29.10;86.00
54429;DHT22;40337;52.978;6.310;2023-06-24T15:36:05;28.90;85.60
54429;DHT22;40337;52.978;6.310;2023-06-24T15:38:31;28.80;85.60
54429;DHT22;40337;52.978;6.310;2023-06-24T15:40:56;28.80;87.00